createdAt,value
2018-06-18T00:00:27.071Z,62.76
2018-06-18T00:01:27.135Z,62.75
2018-06-18T00:02:26.966Z,62.78
2018-06-18T00:03:27.145Z,62.76
2018-06-18T00:04:27.182Z,62.77
2018-06-18T00:05:27.196Z,62.75
2018-06-18T00:06:27.121Z,62.76
2018-06-18T00:07:26.867Z,62.76
2018-06-18T00:08:27.068Z,62.77
2018-06-18T00:09:27.210Z,62.72
2018-06-18T00:10:26.996Z,62.72
2018-06-18T00:11:27.043Z,62.73
2018-06-18T00:12:27.010Z,62.66
2018-06-18T00:13:27.120Z,62.65
2018-06-18T00:14:27.139Z,62.64
2018-06-18T00:15:26.937Z,62.67
2018-06-18T00:16:26.875Z,62.65
2018-06-18T00:17:27.072Z,62.67
2018-06-18T00:18:27.115Z,62.66
2018-06-18T00:19:27.070Z,62.64
2018-06-18T00:20:27.069Z,62.62
2018-06-18T00:21:26.986Z,62.64
2018-06-18T00:22:26.918Z,62.63
2018-06-18T00:23:27.069Z,62.64
2018-06-18T00:24:27.018Z,62.61
2018-06-18T00:25:26.835Z,62.57
2018-06-18T00:26:27.134Z,62.58
2018-06-18T00:27:27.040Z,62.6
2018-06-18T00:28:27.198Z,62.58
2018-06-18T00:29:26.901Z,62.62
2018-06-18T00:30:27.108Z,62.64
2018-06-18T00:31:26.988Z,62.67
2018-06-18T00:32:26.973Z,62.64
2018-06-18T00:33:27.053Z,62.64
2018-06-18T00:34:26.905Z,62.63
2018-06-18T00:35:27.005Z,62.64
2018-06-18T00:36:27.050Z,62.71
2018-06-18T00:37:27.111Z,62.72
2018-06-18T00:38:26.951Z,62.68
2018-06-18T00:39:27.063Z,62.74
2018-06-18T00:40:26.980Z,62.69
2018-06-18T00:41:27.102Z,62.73
2018-06-18T00:42:26.992Z,62.76
2018-06-18T00:43:26.922Z,62.77
2018-06-18T00:44:27.105Z,62.76
2018-06-18T00:45:27.341Z,62.79
2018-06-18T00:46:27.015Z,62.78
2018-06-18T00:47:27.072Z,62.75
2018-06-18T00:48:27.088Z,62.81
2018-06-18T00:49:27.208Z,62.82
2018-06-18T00:50:27.161Z,62.85
2018-06-18T00:51:27.100Z,62.81
2018-06-18T00:52:26.927Z,62.85
2018-06-18T00:53:27.042Z,62.8
2018-06-18T00:54:27.089Z,62.86
2018-06-18T00:55:26.940Z,62.85
2018-06-18T00:56:27.003Z,62.83
2018-06-18T00:57:27.178Z,62.82
2018-06-18T00:58:26.881Z,62.85
2018-06-18T00:59:27.121Z,62.87
2018-06-18T01:00:26.939Z,62.82
2018-06-18T01:01:26.953Z,62.84
2018-06-18T01:02:26.896Z,62.85
2018-06-18T01:03:26.917Z,62.82
2018-06-18T01:04:27.106Z,62.87
2018-06-18T01:05:27.052Z,62.85
2018-06-18T01:06:26.970Z,62.84
2018-06-18T01:07:27.070Z,62.86
2018-06-18T01:08:27.017Z,62.84
2018-06-18T01:09:26.988Z,62.84
2018-06-18T01:10:26.811Z,62.85
2018-06-18T01:11:27.570Z,62.83
2018-06-18T01:12:27.220Z,62.81
2018-06-18T01:13:26.979Z,62.8
2018-06-18T01:14:27.071Z,62.84
2018-06-18T01:15:26.935Z,62.82
2018-06-18T01:16:26.883Z,62.77
2018-06-18T01:17:27.032Z,62.85
2018-06-18T01:18:27.021Z,62.85
2018-06-18T01:19:26.817Z,62.8
2018-06-18T01:20:27.079Z,62.77
2018-06-18T01:21:27.016Z,62.81
2018-06-18T01:22:26.983Z,62.81
2018-06-18T01:23:26.929Z,62.79
2018-06-18T01:24:27.045Z,62.8
2018-06-18T01:25:26.890Z,62.8
2018-06-18T01:26:26.991Z,62.84
2018-06-18T01:27:27.043Z,62.83
2018-06-18T01:28:26.922Z,62.78
2018-06-18T01:29:26.992Z,62.82
2018-06-18T01:30:26.975Z,62.78
2018-06-18T01:31:26.828Z,62.77
2018-06-18T01:32:26.975Z,62.75
2018-06-18T01:33:26.935Z,62.77
2018-06-18T01:34:27.104Z,62.77
2018-06-18T01:35:26.869Z,62.77
2018-06-18T01:36:26.901Z,62.76
2018-06-18T01:37:26.919Z,62.79
2018-06-18T01:38:27.066Z,62.78
2018-06-18T01:39:27.035Z,62.79
2018-06-18T01:40:26.999Z,62.75
2018-06-18T01:41:26.967Z,62.75
2018-06-18T01:42:26.938Z,62.78
2018-06-18T01:43:27.087Z,62.83
2018-06-18T01:44:27.150Z,62.81
2018-06-18T01:45:26.917Z,62.75
2018-06-18T01:46:26.937Z,62.77
2018-06-18T01:47:27.146Z,62.82
2018-06-18T01:48:27.053Z,62.78
2018-06-18T01:49:27.164Z,62.79
2018-06-18T01:50:26.984Z,62.75
2018-06-18T01:51:27.077Z,62.79
2018-06-18T01:52:27.121Z,62.76
2018-06-18T01:53:27.170Z,62.77
2018-06-18T01:54:27.103Z,62.78
2018-06-18T01:55:26.812Z,62.79
2018-06-18T01:56:27.078Z,62.8
2018-06-18T01:57:27.088Z,62.79
2018-06-18T01:58:26.926Z,62.78
2018-06-18T01:59:27.071Z,62.77
2018-06-18T02:00:27.028Z,62.82
2018-06-18T02:01:26.912Z,62.79
2018-06-18T02:02:26.965Z,62.8
2018-06-18T02:03:27.039Z,62.75
2018-06-18T02:04:26.947Z,62.74
2018-06-18T02:05:27.051Z,62.75
2018-06-18T02:06:27.068Z,62.75
2018-06-18T02:07:27.075Z,62.8
2018-06-18T02:08:27.139Z,62.76
2018-06-18T02:09:27.011Z,62.76
2018-06-18T02:10:27.522Z,62.8
2018-06-18T02:11:27.193Z,62.72
2018-06-18T02:12:26.959Z,62.75
2018-06-18T02:13:26.938Z,62.75
2018-06-18T02:14:27.087Z,62.73
2018-06-18T02:15:26.925Z,62.75
2018-06-18T02:16:27.026Z,62.75
2018-06-18T02:17:26.920Z,62.71
2018-06-18T02:18:27.035Z,62.74
2018-06-18T02:19:27.042Z,62.78
2018-06-18T02:20:26.972Z,62.75
2018-06-18T02:21:27.160Z,62.77
2018-06-18T02:22:36.942Z,62.8
2018-06-18T02:23:27.074Z,62.8
2018-06-18T02:24:27.014Z,62.78
2018-06-18T02:25:40.513Z,62.8
2018-06-18T02:26:27.000Z,62.8
2018-06-18T02:27:27.037Z,62.78
2018-06-18T02:28:26.980Z,62.81
2018-06-18T02:29:27.077Z,62.82
2018-06-18T02:30:27.065Z,62.86
2018-06-18T02:31:27.022Z,62.82
2018-06-18T02:32:27.012Z,62.86
2018-06-18T02:33:27.025Z,62.86
2018-06-18T02:34:26.888Z,62.82
2018-06-18T02:35:27.018Z,62.82
2018-06-18T02:36:27.040Z,62.84
2018-06-18T02:37:26.885Z,62.82
2018-06-18T02:38:27.092Z,62.77
2018-06-18T02:39:27.012Z,62.85
2018-06-18T02:40:26.853Z,62.83
2018-06-18T02:41:27.035Z,62.83
2018-06-18T02:42:27.084Z,62.82
2018-06-18T02:43:26.890Z,62.78
2018-06-18T02:44:26.975Z,62.8
2018-06-18T02:45:26.964Z,62.82
2018-06-18T02:46:26.812Z,62.82
2018-06-18T02:47:26.953Z,62.83
2018-06-18T02:48:26.925Z,62.8
2018-06-18T02:49:27.018Z,62.83
2018-06-18T02:50:26.924Z,62.81
2018-06-18T02:51:27.000Z,62.78
2018-06-18T02:52:26.955Z,62.78
2018-06-18T02:53:27.034Z,62.8
2018-06-18T02:54:26.837Z,62.81
2018-06-18T02:55:26.847Z,62.8
2018-06-18T02:56:27.002Z,62.8
2018-06-18T02:57:27.038Z,62.84
2018-06-18T02:58:27.149Z,62.84
2018-06-18T02:59:26.957Z,62.8
2018-06-18T03:00:26.962Z,62.8
2018-06-18T03:01:27.009Z,62.84
2018-06-18T03:02:26.845Z,62.86
2018-06-18T03:03:26.965Z,62.81
2018-06-18T03:04:26.888Z,62.78
2018-06-18T03:05:26.875Z,62.8
2018-06-18T03:06:26.876Z,62.79
2018-06-18T03:07:27.057Z,62.83
2018-06-18T03:08:27.121Z,62.85
2018-06-18T03:09:27.045Z,62.81
2018-06-18T03:10:27.092Z,62.85
2018-06-18T03:11:26.981Z,62.88
2018-06-18T03:12:27.158Z,62.87
2018-06-18T03:13:26.804Z,62.84
2018-06-18T03:14:27.014Z,62.84
2018-06-18T03:15:26.987Z,62.84
2018-06-18T03:16:27.030Z,62.84
2018-06-18T03:17:27.017Z,62.81
2018-06-18T03:18:27.103Z,62.83
2018-06-18T03:19:27.089Z,62.77
2018-06-18T03:20:27.113Z,62.8
2018-06-18T03:21:26.914Z,62.8
2018-06-18T03:22:26.880Z,62.83
2018-06-18T03:23:26.966Z,62.84
2018-06-18T03:24:26.995Z,62.85
2018-06-18T03:25:27.118Z,62.81
2018-06-18T03:26:27.052Z,62.8
2018-06-18T03:27:26.969Z,62.85
2018-06-18T03:28:27.232Z,62.8
2018-06-18T03:29:26.927Z,62.85
2018-06-18T03:30:27.066Z,62.85
2018-06-18T03:31:26.951Z,62.84
2018-06-18T03:32:27.053Z,62.86
2018-06-18T03:33:26.948Z,62.84
2018-06-18T03:34:27.237Z,62.84
2018-06-18T03:35:26.848Z,62.83
2018-06-18T03:36:27.197Z,62.81
2018-06-18T03:37:27.133Z,62.78
2018-06-18T03:38:27.092Z,62.8
2018-06-18T03:39:27.053Z,62.84
2018-06-18T03:40:27.531Z,62.8
2018-06-18T03:41:28.548Z,62.81
2018-06-18T03:42:27.815Z,62.8
2018-06-18T03:43:27.101Z,62.78
2018-06-18T03:44:27.740Z,62.74
2018-06-18T03:45:27.772Z,62.77
2018-06-18T03:46:27.605Z,62.73
2018-06-18T03:47:27.570Z,62.8
2018-06-18T03:48:27.571Z,62.79
2018-06-18T03:49:27.530Z,62.83
2018-06-18T03:50:27.539Z,62.82
2018-06-18T03:51:27.730Z,62.75
2018-06-18T03:52:27.660Z,62.76
2018-06-18T03:53:27.755Z,62.75
2018-06-18T03:54:27.589Z,62.76
2018-06-18T03:55:27.543Z,62.76
2018-06-18T03:56:27.700Z,62.75
2018-06-18T03:57:27.744Z,62.72
2018-06-18T03:58:27.466Z,62.81
2018-06-18T03:59:27.619Z,62.77
2018-06-18T04:00:27.847Z,62.8
2018-06-18T04:01:27.478Z,62.73
2018-06-18T04:02:27.769Z,62.71
2018-06-18T04:03:27.795Z,62.71
2018-06-18T04:04:27.645Z,62.71
2018-06-18T04:05:28.185Z,62.67
2018-06-18T04:06:27.648Z,62.69
2018-06-18T04:07:27.604Z,62.75
2018-06-18T04:08:27.542Z,62.74
2018-06-18T04:09:28.378Z,62.77
2018-06-18T04:10:27.734Z,62.78
2018-06-18T04:11:27.776Z,62.77
2018-06-18T04:12:27.533Z,62.76
2018-06-18T04:13:27.532Z,62.76
2018-06-18T04:14:27.633Z,62.77
2018-06-18T04:15:28.609Z,62.73
2018-06-18T04:16:27.799Z,62.73
2018-06-18T04:17:27.725Z,62.8
2018-06-18T04:18:27.545Z,62.77
2018-06-18T04:19:28.083Z,62.76
2018-06-18T04:20:27.822Z,62.76
2018-06-18T04:21:27.556Z,62.75
2018-06-18T04:22:27.672Z,62.78
2018-06-18T04:23:27.656Z,62.84
2018-06-18T04:24:28.797Z,62.78
2018-06-18T04:25:27.781Z,62.78
2018-06-18T04:26:27.731Z,62.82
2018-06-18T04:27:27.605Z,62.8
2018-06-18T04:28:27.723Z,62.73
2018-06-18T04:29:27.843Z,62.71
2018-06-18T04:30:27.510Z,62.81
2018-06-18T04:31:27.717Z,62.79
2018-06-18T04:32:27.566Z,62.78
2018-06-18T04:33:27.691Z,62.8
2018-06-18T04:34:27.693Z,62.87
2018-06-18T04:35:27.729Z,62.85
2018-06-18T04:36:27.426Z,62.86
2018-06-18T04:37:27.949Z,62.81
2018-06-18T04:38:27.605Z,62.83
2018-06-18T04:39:26.861Z,62.87
2018-06-18T04:40:26.852Z,62.87
2018-06-18T04:41:26.917Z,62.85
2018-06-18T04:42:26.882Z,62.8
2018-06-18T04:43:27.019Z,62.83
2018-06-18T04:44:27.004Z,62.81
2018-06-18T04:45:26.839Z,62.82
2018-06-18T04:46:26.877Z,62.8
2018-06-18T04:47:26.887Z,62.87
2018-06-18T04:48:27.088Z,62.94
2018-06-18T04:49:26.867Z,62.88
2018-06-18T04:50:26.927Z,62.89
2018-06-18T04:51:27.145Z,62.98
2018-06-18T04:52:27.007Z,62.92
2018-06-18T04:53:27.050Z,62.91
2018-06-18T04:54:26.899Z,62.91
2018-06-18T04:55:27.081Z,62.94
2018-06-18T04:56:27.704Z,62.92
2018-06-18T04:57:26.841Z,62.9
2018-06-18T04:58:26.995Z,62.91
2018-06-18T04:59:26.906Z,62.91
2018-06-18T05:00:26.997Z,62.91
2018-06-18T05:01:26.887Z,62.91
2018-06-18T05:02:27.033Z,62.96
2018-06-18T05:03:26.837Z,62.95
2018-06-18T05:04:27.036Z,62.89
2018-06-18T05:05:26.778Z,62.86
2018-06-18T05:06:26.885Z,62.89
2018-06-18T05:07:27.085Z,62.88
2018-06-18T05:08:26.863Z,62.91
2018-06-18T05:09:26.910Z,62.91
2018-06-18T05:10:26.884Z,62.98
2018-06-18T05:11:27.018Z,63
2018-06-18T05:12:26.983Z,63
2018-06-18T05:13:26.971Z,62.91
2018-06-18T05:14:26.859Z,62.96
2018-06-18T05:15:26.974Z,62.94
2018-06-18T05:16:26.871Z,62.98
2018-06-18T05:17:27.073Z,63
2018-06-18T05:18:27.058Z,63.01
2018-06-18T05:19:26.947Z,63.06
2018-06-18T05:20:27.654Z,63
2018-06-18T05:21:27.031Z,63.02
2018-06-18T05:22:26.886Z,63.03
2018-06-18T05:23:26.790Z,63.01
2018-06-18T05:24:27.053Z,63.02
2018-06-18T05:25:26.983Z,62.96
2018-06-18T05:26:27.524Z,62.97
2018-06-18T05:27:27.157Z,63.05
2018-06-18T05:28:26.818Z,63.04
2018-06-18T05:29:26.992Z,63.08
2018-06-18T05:30:26.881Z,63.07
2018-06-18T05:31:27.092Z,63.1
2018-06-18T05:32:26.889Z,63.08
2018-06-18T05:33:27.049Z,63.1
2018-06-18T05:34:27.030Z,63.08
2018-06-18T05:35:27.689Z,63.11
2018-06-18T05:36:26.922Z,63.09
2018-06-18T05:37:26.910Z,63.09
2018-06-18T05:38:27.029Z,63.1
2018-06-18T05:39:27.058Z,63.11
2018-06-18T05:40:27.077Z,63.05
2018-06-18T05:41:27.031Z,63.11
2018-06-18T05:42:26.948Z,63.05
2018-06-18T05:43:27.352Z,63.13
2018-06-18T05:44:26.943Z,63.1
2018-06-18T05:45:27.067Z,63.11
2018-06-18T05:46:26.931Z,63.17
2018-06-18T05:47:27.092Z,63.16
2018-06-18T05:48:26.981Z,63.11
2018-06-18T05:49:27.040Z,63.13
2018-06-18T05:50:27.741Z,63.13
2018-06-18T05:51:29.050Z,63.14
2018-06-18T05:52:29.651Z,63.14
2018-06-18T05:53:26.949Z,63.16
2018-06-18T05:54:27.060Z,63.11
2018-06-18T05:55:26.941Z,63.1
2018-06-18T05:56:27.075Z,63.12
2018-06-18T05:57:27.077Z,63.13
2018-06-18T05:58:27.752Z,63.15
2018-06-18T05:59:27.047Z,63.15
2018-06-18T06:00:26.995Z,63.13
2018-06-18T06:01:27.062Z,63.14
2018-06-18T06:02:27.013Z,63.12
2018-06-18T06:03:27.007Z,63.12
2018-06-18T06:04:26.951Z,63.12
2018-06-18T06:05:26.948Z,63.16
2018-06-18T06:06:27.244Z,63.16
2018-06-18T06:07:27.081Z,63.15
2018-06-18T06:08:27.062Z,63.11
2018-06-18T06:09:27.024Z,63.11
2018-06-18T06:10:27.064Z,63.1
2018-06-18T06:11:26.965Z,63.12
2018-06-18T06:12:26.973Z,63.13
2018-06-18T06:13:27.104Z,63.12
2018-06-18T06:14:27.010Z,63.12
2018-06-18T06:15:27.093Z,63.14
2018-06-18T06:16:27.070Z,63.13
2018-06-18T06:17:27.047Z,63.09
2018-06-18T06:18:27.007Z,63.12
2018-06-18T06:19:26.983Z,63.12
2018-06-18T06:20:26.998Z,63.11
2018-06-18T06:21:27.122Z,63.12
2018-06-18T06:22:27.579Z,63.1
2018-06-18T06:23:27.081Z,63.1
2018-06-18T06:24:27.069Z,63.09
2018-06-18T06:25:29.590Z,63.1
2018-06-18T06:26:26.987Z,63.13
2018-06-18T06:27:27.122Z,63.12
2018-06-18T06:28:27.115Z,63.13
2018-06-18T06:29:27.241Z,63.1
2018-06-18T06:30:27.072Z,63.11
2018-06-18T06:31:27.117Z,63.14
2018-06-18T06:32:26.971Z,63.11
2018-06-18T06:33:27.015Z,63.11
2018-06-18T06:34:27.011Z,63.12
2018-06-18T06:35:27.055Z,63.1
2018-06-18T06:36:26.986Z,63.12
2018-06-18T06:37:27.532Z,63.11
2018-06-18T06:38:27.129Z,63.11
2018-06-18T06:39:27.209Z,63.11
2018-06-18T06:40:27.140Z,63.11
2018-06-18T06:41:27.231Z,63.13
2018-06-18T06:42:27.120Z,63.13
2018-06-18T06:43:27.073Z,63.13
2018-06-18T06:44:40.838Z,63.1
2018-06-18T06:45:27.162Z,63.14
2018-06-18T06:46:27.153Z,63.13
2018-06-18T06:47:27.814Z,63.12
2018-06-18T06:48:29.598Z,63.1
2018-06-18T06:49:27.115Z,63.11
2018-06-18T06:50:27.158Z,63.11
2018-06-18T06:51:27.162Z,63.1
2018-06-18T06:52:27.116Z,63.1
2018-06-18T06:53:27.155Z,63.1
2018-06-18T06:54:27.081Z,63.11
2018-06-18T06:55:27.220Z,63.13
2018-06-18T06:56:27.425Z,63.1
2018-06-18T06:57:29.639Z,63.08
2018-06-18T06:58:27.145Z,63.11
2018-06-18T06:59:29.406Z,63.1
2018-06-18T07:00:27.093Z,63.15
2018-06-18T07:01:27.470Z,63.14
2018-06-18T07:02:27.225Z,63.13
2018-06-18T07:03:27.110Z,63.14
2018-06-18T07:04:27.178Z,63.11
2018-06-18T07:05:27.007Z,63.12
2018-06-18T07:06:27.157Z,63.1
2018-06-18T07:07:27.467Z,63.13
2018-06-18T07:08:27.034Z,63.14
2018-06-18T07:09:27.166Z,63.13
2018-06-18T07:10:27.144Z,63.12
2018-06-18T07:11:27.254Z,63.1
2018-06-18T07:12:27.105Z,63.12
2018-06-18T07:13:27.872Z,63.14
2018-06-18T07:14:27.431Z,63.14
2018-06-18T07:15:27.120Z,63.13
2018-06-18T07:16:27.112Z,63.16
2018-06-18T07:17:27.216Z,63.11
2018-06-18T07:18:27.170Z,63.15
2018-06-18T07:19:27.266Z,63.14
2018-06-18T07:20:27.108Z,63.13
2018-06-18T07:21:27.127Z,63.12
2018-06-18T07:22:27.575Z,63.11
2018-06-18T07:23:27.444Z,63.12
2018-06-18T07:24:27.177Z,63.18
2018-06-18T07:25:29.566Z,63.16
2018-06-18T07:26:27.123Z,63.14
2018-06-18T07:27:27.477Z,63.14
2018-06-18T07:28:27.298Z,63.12
2018-06-18T07:29:27.173Z,63.15
2018-06-18T07:30:28.647Z,63.12
2018-06-18T07:31:27.165Z,63.13
2018-06-18T07:32:27.355Z,63.11
2018-06-18T07:33:27.108Z,63.15
2018-06-18T07:34:29.609Z,63.16
2018-06-18T07:35:27.153Z,63.1
2018-06-18T07:36:27.247Z,63.12
2018-06-18T07:37:27.216Z,63.15
2018-06-18T07:38:27.439Z,63.1
2018-06-18T07:39:26.993Z,63.16
2018-06-18T07:40:27.029Z,63.15
2018-06-18T07:41:26.800Z,63.13
2018-06-18T07:42:28.044Z,63.16
2018-06-18T07:43:26.772Z,63.13
2018-06-18T07:44:26.989Z,63.32
2018-06-18T07:45:27.245Z,63.23
2018-06-18T07:46:26.953Z,63.07
2018-06-18T07:47:26.884Z,62.84
2018-06-18T07:48:27.039Z,62.79
2018-06-18T07:49:27.888Z,62.71
2018-06-18T07:50:26.961Z,62.58
2018-06-18T07:51:28.018Z,62.35
2018-06-18T07:52:26.910Z,61.73
2018-06-18T07:53:26.951Z,61.55
2018-06-18T07:54:27.039Z,60.71
2018-06-18T07:55:27.580Z,60.65
2018-06-18T07:56:26.871Z,60.28
2018-06-18T07:57:27.139Z,59.89
2018-06-18T07:58:27.121Z,59.37
2018-06-18T07:59:27.033Z,59.36
2018-06-18T08:00:27.121Z,59.09
2018-06-18T08:01:26.913Z,59.39
2018-06-18T08:02:26.815Z,58.94
2018-06-18T08:03:27.481Z,58.95
2018-06-18T08:04:26.787Z,59.41
2018-06-18T08:05:26.941Z,59.4
2018-06-18T08:06:26.955Z,59.53
2018-06-18T08:07:26.885Z,59.76
2018-06-18T08:08:26.796Z,59.81
2018-06-18T08:09:27.342Z,58.74
2018-06-18T08:10:26.958Z,58.97
2018-06-18T08:11:26.807Z,58.91
2018-06-18T08:12:26.908Z,58.85
2018-06-18T08:13:26.914Z,59.35
2018-06-18T08:14:26.809Z,59.12
2018-06-18T08:15:26.797Z,59.45
2018-06-18T08:16:27.021Z,59.23
2018-06-18T08:17:36.980Z,58.86
2018-06-18T08:18:27.059Z,58.57
2018-06-18T08:19:26.928Z,58.64
2018-06-18T08:20:26.784Z,58.68
2018-06-18T08:21:26.823Z,59.33
2018-06-18T08:22:26.992Z,59.08
2018-06-18T08:23:27.026Z,59.08
2018-06-18T08:24:27.045Z,59.26
2018-06-18T08:25:26.970Z,59.51
2018-06-18T08:26:26.894Z,59.68
2018-06-18T08:27:26.993Z,59.73
2018-06-18T08:28:26.990Z,59.85
2018-06-18T08:29:26.749Z,60.03
2018-06-18T08:30:26.915Z,60.08
2018-06-18T08:31:26.812Z,60.25
2018-06-18T08:32:26.833Z,60.35
2018-06-18T08:33:26.968Z,60.47
2018-06-18T08:34:26.919Z,60.53
2018-06-18T08:35:26.750Z,60.55
2018-06-18T08:36:26.900Z,60.54
2018-06-18T08:37:26.898Z,60.58
2018-06-18T08:38:26.837Z,60.69
2018-06-18T08:39:28.538Z,60.72
2018-06-18T08:40:26.871Z,60.81
2018-06-18T08:41:27.031Z,60.87
2018-06-18T08:42:26.817Z,60.86
2018-06-18T08:43:26.933Z,60.88
2018-06-18T08:44:27.069Z,60.97
2018-06-18T08:45:26.976Z,60.98
2018-06-18T08:46:26.909Z,61.01
2018-06-18T08:47:26.878Z,61.03
2018-06-18T08:48:27.044Z,61.05
2018-06-18T08:49:26.835Z,61.12
2018-06-18T08:50:26.838Z,61.15
2018-06-18T08:51:26.941Z,61.2
2018-06-18T08:52:26.848Z,61.25
2018-06-18T08:53:26.965Z,61.3
2018-06-18T08:54:26.975Z,61.29
2018-06-18T08:55:26.877Z,61.29
2018-06-18T08:56:26.876Z,61.29
2018-06-18T08:57:27.029Z,61.34
2018-06-18T08:58:26.824Z,61.38
2018-06-18T08:59:26.888Z,61.35
2018-06-18T09:00:27.008Z,61.35
2018-06-18T09:01:26.801Z,61.39
2018-06-18T09:02:26.966Z,61.4
2018-06-18T09:03:27.022Z,61.42
2018-06-18T09:04:26.881Z,61.46
2018-06-18T09:05:26.820Z,61.48
2018-06-18T09:06:26.956Z,61.51
2018-06-18T09:07:26.894Z,61.51
2018-06-18T09:08:27.045Z,61.53
2018-06-18T09:09:26.832Z,61.5
2018-06-18T09:10:27.816Z,61.54
2018-06-18T09:11:26.901Z,61.48
2018-06-18T09:12:26.866Z,61.6
2018-06-18T09:13:26.879Z,61.6
2018-06-18T09:14:26.950Z,61.63
2018-06-18T09:15:26.767Z,61.66
2018-06-18T09:16:26.934Z,61.68
2018-06-18T09:17:26.920Z,61.65
2018-06-18T09:18:27.025Z,61.67
2018-06-18T09:19:26.734Z,61.72
2018-06-18T09:20:27.035Z,61.71
2018-06-18T09:21:26.972Z,61.7
2018-06-18T09:22:26.708Z,61.74
2018-06-18T09:23:27.034Z,61.73
2018-06-18T09:24:26.991Z,61.77
2018-06-18T09:25:26.791Z,61.73
2018-06-18T09:26:26.920Z,61.78
2018-06-18T09:27:26.907Z,61.76
2018-06-18T09:28:26.825Z,61.77
2018-06-18T09:29:27.002Z,61.81
2018-06-18T09:30:26.901Z,61.77
2018-06-18T09:31:27.059Z,61.79
2018-06-18T09:32:28.569Z,61.82
2018-06-18T09:33:27.139Z,61.83
2018-06-18T09:34:26.784Z,61.81
2018-06-18T09:35:26.877Z,61.82
2018-06-18T09:36:26.939Z,61.84
2018-06-18T09:37:26.924Z,61.89
2018-06-18T09:38:26.875Z,61.84
2018-06-18T09:39:28.597Z,61.82
2018-06-18T09:40:26.855Z,61.86
2018-06-18T09:41:26.803Z,61.91
2018-06-18T09:42:26.898Z,61.88
2018-06-18T09:43:26.722Z,61.88
2018-06-18T09:44:26.810Z,61.89
2018-06-18T09:45:26.936Z,61.93
2018-06-18T09:46:26.830Z,61.93
2018-06-18T09:47:26.821Z,61.91
2018-06-18T09:48:26.930Z,61.92
2018-06-18T09:49:26.752Z,61.95
2018-06-18T09:50:26.748Z,61.97
2018-06-18T09:51:26.983Z,61.98
2018-06-18T09:52:26.767Z,61.93
2018-06-18T09:53:27.021Z,62.01
2018-06-18T09:54:26.856Z,61.96
2018-06-18T09:55:26.888Z,61.99
2018-06-18T09:56:26.742Z,61.96
2018-06-18T09:57:26.922Z,61.96
2018-06-18T09:58:27.093Z,62.03
2018-06-18T09:59:26.896Z,62
2018-06-18T10:00:26.895Z,62
2018-06-18T10:01:26.775Z,62.02
2018-06-18T10:02:27.668Z,62
2018-06-18T10:03:26.903Z,62.03
2018-06-18T10:04:27.032Z,62.04
2018-06-18T10:05:27.199Z,62.06
2018-06-18T10:06:27.145Z,62.05
2018-06-18T10:07:26.963Z,62.08
2018-06-18T10:08:27.717Z,62.05
2018-06-18T10:09:27.047Z,61.93
2018-06-18T10:10:26.835Z,62.15
2018-06-18T10:11:26.829Z,62.12
2018-06-18T10:12:26.957Z,62.26
2018-06-18T10:13:26.875Z,62.2
2018-06-18T10:14:27.574Z,62.12
2018-06-18T10:15:26.932Z,62.13
2018-06-18T10:16:26.796Z,62.15
2018-06-18T10:17:27.139Z,62.16
2018-06-18T10:18:27.006Z,62.15
2018-06-18T10:19:26.726Z,62.15
2018-06-18T10:20:26.824Z,62.2
2018-06-18T10:21:27.125Z,62.19
2018-06-18T10:22:26.998Z,62.18
2018-06-18T10:23:26.962Z,62.15
2018-06-18T10:24:27.327Z,62.14
2018-06-18T10:25:26.779Z,62.13
2018-06-18T10:26:26.962Z,62.12
2018-06-18T10:27:26.934Z,62.16
2018-06-18T10:28:26.785Z,62.16
2018-06-18T10:29:26.895Z,62.1
2018-06-18T10:30:26.895Z,62.12
2018-06-18T10:31:27.060Z,62.09
2018-06-18T10:32:26.969Z,62.14
2018-06-18T10:33:26.924Z,62.2
2018-06-18T10:34:27.006Z,62.13
2018-06-18T10:35:26.990Z,62.16
2018-06-18T10:36:26.899Z,62.17
2018-06-18T10:37:27.028Z,62.1
2018-06-18T10:38:27.041Z,62.11
2018-06-18T10:39:26.735Z,62.1
2018-06-18T10:40:27.016Z,62.07
2018-06-18T10:41:27.251Z,62.1
2018-06-18T10:42:26.899Z,62.04
2018-06-18T10:43:27.059Z,62.03
2018-06-18T10:44:26.944Z,62.01
2018-06-18T10:45:26.810Z,62
2018-06-18T10:46:26.983Z,61.95
2018-06-18T10:47:27.011Z,61.99
2018-06-18T10:48:36.962Z,61.98
2018-06-18T10:49:26.895Z,61.95
2018-06-18T10:50:26.792Z,61.98
2018-06-18T10:51:26.722Z,62.04
2018-06-18T10:52:26.897Z,62.04
2018-06-18T10:53:26.746Z,62.1
2018-06-18T10:54:26.935Z,62.17
2018-06-18T10:55:26.782Z,62.16
2018-06-18T10:56:26.771Z,62.18
2018-06-18T10:57:26.968Z,62.13
2018-06-18T10:58:26.957Z,62.2
2018-06-18T10:59:26.769Z,62.15
2018-06-18T11:00:26.814Z,62.17
2018-06-18T11:01:26.796Z,62.18
2018-06-18T11:02:26.769Z,62.14
2018-06-18T11:03:27.067Z,62.15
2018-06-18T11:04:26.855Z,62.13
2018-06-18T11:05:26.878Z,62.13
2018-06-18T11:06:26.871Z,62.16
2018-06-18T11:07:26.877Z,62.15
2018-06-18T11:08:26.856Z,62.17
2018-06-18T11:09:27.107Z,62.16
2018-06-18T11:10:26.839Z,62.15
2018-06-18T11:11:26.803Z,62.14
2018-06-18T11:12:26.916Z,62.13
2018-06-18T11:13:26.863Z,62.19
2018-06-18T11:14:26.991Z,62.18
2018-06-18T11:15:26.786Z,62.16
2018-06-18T11:16:29.716Z,62.18
2018-06-18T11:17:29.859Z,62.17
2018-06-18T11:18:26.965Z,62.13
2018-06-18T11:19:26.928Z,62.19
2018-06-18T11:20:26.708Z,62.21
2018-06-18T11:21:26.898Z,62.23
2018-06-18T11:22:27.044Z,62.24
2018-06-18T11:23:26.896Z,62.22
2018-06-18T11:24:27.342Z,62.26
2018-06-18T11:25:26.875Z,62.26
2018-06-18T11:26:28.163Z,62.25
2018-06-18T11:27:26.799Z,62.28
2018-06-18T11:28:28.240Z,62.28
2018-06-18T11:29:26.946Z,62.31
2018-06-18T11:30:26.725Z,62.3
2018-06-18T11:31:26.795Z,62.31
2018-06-18T11:32:27.438Z,62.31
2018-06-18T11:33:26.805Z,62.29
2018-06-18T11:34:26.718Z,62.37
2018-06-18T11:35:26.942Z,62.35
2018-06-18T11:36:27.003Z,62.35
2018-06-18T11:37:26.868Z,62.35
2018-06-18T11:38:26.837Z,62.32
2018-06-18T11:39:28.129Z,62.34
2018-06-18T11:40:26.869Z,62.26
2018-06-18T11:41:26.932Z,62.2
2018-06-18T11:42:26.673Z,62.21
2018-06-18T11:43:27.586Z,62.21
2018-06-18T11:44:26.902Z,62.34
2018-06-18T11:45:26.809Z,62.26
2018-06-18T11:46:27.041Z,62.3
2018-06-18T11:47:26.816Z,62.36
2018-06-18T11:48:26.947Z,62.35
2018-06-18T11:49:26.847Z,62.4
2018-06-18T11:50:26.834Z,62.4
2018-06-18T11:51:36.864Z,62.39
2018-06-18T11:52:26.935Z,62.42
2018-06-18T11:53:26.925Z,62.38
2018-06-18T11:54:26.820Z,62.37
2018-06-18T11:55:26.904Z,62.42
2018-06-18T11:56:26.897Z,62.43
2018-06-18T11:57:27.009Z,62.41
2018-06-18T11:58:27.597Z,62.44
2018-06-18T11:59:26.959Z,62.45
2018-06-18T12:00:26.851Z,62.41
2018-06-18T12:01:27.357Z,62.45
2018-06-18T12:02:26.838Z,62.45
2018-06-18T12:03:26.722Z,62.45
2018-06-18T12:04:26.883Z,62.44
2018-06-18T12:05:26.754Z,62.46
2018-06-18T12:06:26.887Z,62.49
2018-06-18T12:07:26.822Z,62.43
2018-06-18T12:08:26.834Z,62.46
2018-06-18T12:09:27.609Z,62.44
2018-06-18T12:10:26.936Z,62.47
2018-06-18T12:11:26.886Z,62.46
2018-06-18T12:12:40.711Z,62.51
2018-06-18T12:13:26.869Z,62.47
2018-06-18T12:14:27.045Z,62.48
2018-06-18T12:15:26.754Z,62.51
2018-06-18T12:16:27.118Z,62.49
2018-06-18T12:17:26.913Z,62.51
2018-06-18T12:18:26.903Z,62.51
2018-06-18T12:19:26.702Z,62.52
2018-06-18T12:20:27.069Z,62.5
2018-06-18T12:21:26.794Z,62.54
2018-06-18T12:22:26.793Z,62.53
2018-06-18T12:23:26.925Z,62.52
2018-06-18T12:24:26.834Z,62.54
2018-06-18T12:25:26.939Z,62.55
2018-06-18T12:26:26.788Z,62.53
2018-06-18T12:27:26.999Z,62.47
2018-06-18T12:28:26.942Z,62.53
2018-06-18T12:29:26.984Z,62.55
2018-06-18T12:30:26.949Z,62.53
2018-06-18T12:31:26.990Z,62.51
2018-06-18T12:32:26.918Z,62.56
2018-06-18T12:33:40.936Z,62.52
2018-06-18T12:34:26.924Z,62.55
2018-06-18T12:35:27.661Z,62.55
2018-06-18T12:36:26.734Z,62.55
2018-06-18T12:37:27.113Z,62.57
2018-06-18T12:38:26.878Z,62.54
2018-06-18T12:39:26.842Z,62.56
2018-06-18T12:40:26.820Z,62.56
2018-06-18T12:41:27.607Z,62.57
2018-06-18T12:42:26.887Z,62.53
2018-06-18T12:43:26.914Z,62.57
2018-06-18T12:44:27.189Z,62.56
2018-06-18T12:45:26.980Z,62.56
2018-06-18T12:46:26.931Z,62.51
2018-06-18T12:47:26.821Z,62.55
2018-06-18T12:48:27.010Z,62.58
2018-06-18T12:49:26.943Z,62.6
2018-06-18T12:50:26.834Z,62.57
2018-06-18T12:51:26.928Z,62.6
2018-06-18T12:52:27.047Z,62.56
2018-06-18T12:53:26.871Z,62.56
2018-06-18T12:54:27.126Z,62.53
2018-06-18T12:55:26.844Z,62.53
2018-06-18T12:56:26.630Z,62.59